Flight Track Log - Related Links

Times and Time Zones

All times are in EDT time to prevent confusion due to time zone crossing. See the LIA553 flight status page for this flight to view local times or setup timezone preferences in your user account.

Time Position Orientation Groundspeed Altitude Reporting Facility
EDT Latitude Longitude Course Direction KTS MPH feet Rate Location/Type
Sun 01:44:50 PM 18.3333 -64.9500 109° East 120 138 1,100  Level San Juan Center
Sun 01:45:51 PM 18.3167 -64.9000 109° East 130 150 2,500 1,388 Climbing San Juan Center
Sun 01:46:51 PM 18.3000 -64.8667 118° Southeast 160 184 3,900 1,350 Climbing San Juan Center
Sun 01:47:51 PM 18.3000 -64.8167 90° East 170 196 5,200 1,300 Climbing San Juan Center
Sun 01:48:51 PM 18.3167 -64.7667 71° East 180 207 6,500 1,289 Climbing San Juan Center
Sun 01:49:52 PM 18.3167 -64.7000 90° East 190 219 7,800 1,240 Climbing San Juan Center
Sun 01:50:52 PM 18.3167 -64.6500 90° East 200 230 9,000 1,200 Climbing San Juan Center
Sun 01:51:52 PM 18.3167 -64.5833 90° East 210 242 10,200 992 Climbing San Juan Center
Sun 01:52:53 PM 18.3167 -64.5333 90° East 220 253 11,000 397 Climbing San Juan Center
Sun 01:53:53 PM 18.3333 -64.4500 78° East 250 288 11,000  Level San Juan Center
Sun 01:54:53 PM 18.3167 -64.3833 105° East 270 311 11,000  Level San Juan Center
Sun 01:55:54 PM 18.3000 -64.3000 102° East 270 311 11,000  Level San Juan Center
Sun 01:56:54 PM 18.2833 -64.2167 102° East 270 311 11,000  Level San Juan Center
Sun 01:57:54 PM 18.3000 -64.1333 78° East 280 322 11,000 50 Level San Juan Center
Sun 01:58:55 PM 18.3167 -64.0667 75° East 280 322 11,100 50 Climbing San Juan Center
Sun 01:59:55 PM 18.3167 -63.9833 90° East 270 311 11,100  Level San Juan Center
Sun 02:00:55 PM 18.3000 -63.9000 102° East 280 322 11,100  Level San Juan Center
Sun 02:01:55 PM 18.2833 -63.8167 102° East 280 322 11,100  Level San Juan Center
Sun 02:03:00 PM 18.2792 -63.7379 93° East  Level FlightAware Approximate
Sun 02:10:00 PM 18.2516 -63.2286 93° East  Level FlightAware Approximate
Sun 02:11:00 PM 18.2337 -63.1593 113° Southeast  Level FlightAware Approximate
Sun 02:12:00 PM 18.2049 -63.0932 118° Southeast  Level FlightAware Approximate
Sun 02:13:00 PM 18.2000 -63.0500 90° East  Level FlightAware Approximate
Sun 02:14:00 PM 18.2048 -63.0551 90° East  Level Estimated
Sun 02:15:00 PM 18.2000 -63.0500 90° East  Level FlightAware Approximate
Sun 02:16:00 PM 18.2048 -63.0551 90° East  Level Estimated
Sun 02:17:00 PM 18.2000 -63.0500 90° East  Level FlightAware Approximate
Sun 02:18:00 PM 18.2048 -63.0551 90° East  Level Estimated
Sun 02:19:00 PM 18.2000 -63.0500 90° East  Level FlightAware Approximate
Sun 02:20:00 PM 18.2048 -63.0551 90° East  Level Estimated
Sun 02:21:00 PM 18.2000 -63.0500 90° East  Level FlightAware Approximate
Sun 02:22:00 PM 18.2048 -63.0551 90° East  Level Estimated
Sun 02:23:00 PM 18.2000 -63.0500 90° East  Level FlightAware Approximate
Sun 02:24:00 PM 18.2048 -63.0551 90° East  Level Estimated
Sun 02:25:00 PM 18.2000 -63.0500 90° East  Level FlightAware Approximate
Sun 02:26:00 PM 18.2048 -63.0551 90° East  Level Estimated
Sun 02:27:00 PM 18.2000 -63.0500 90° East  Level FlightAware Approximate
Sun 02:28:00 PM 18.2048 -63.0551 90° East  Level Estimated

Login

Don't have an account? Register now (free) for customized features, flight alerts, and more!